Aviation Digital Data Service (ADDS)

Output produced by METARs form (0933 UTC 20 September 2019)
found at http://aviationweather.gov/metar/data/
 
KCNY 200520Z 2006/2106 20015G25KT P6SM SKC 
     FM201700 24015G25KT P6SM FEW100 FEW250 
     FM202000 25025G35KT P6SM FEW120 FEW250 
     FM210100 30015KT P6SM FEW250